sensor_id;sensor_type;location;lat;lon;timestamp;P1;durP1;ratioP1;P2;durP2;ratioP2
28844;SDS011;15976;47.938;7.758;2024-01-16T00:02:06;14.45;;;7.95;;
28844;SDS011;15976;47.938;7.758;2024-01-16T00:04:36;15.60;;;9.02;;
28844;SDS011;15976;47.938;7.758;2024-01-16T00:07:04;21.58;;;9.07;;
28844;SDS011;15976;47.938;7.758;2024-01-16T00:09:34;16.30;;;8.60;;
28844;SDS011;15976;47.938;7.758;2024-01-16T00:12:02;17.17;;;8.45;;
28844;SDS011;15976;47.938;7.758;2024-01-16T00:14:30;15.77;;;9.13;;
28844;SDS011;15976;47.938;7.758;2024-01-16T00:17:00;16.05;;;8.90;;
28844;SDS011;15976;47.938;7.758;2024-01-16T00:19:28;14.52;;;8.60;;
28844;SDS011;15976;47.938;7.758;2024-01-16T00:21:55;11.77;;;6.85;;
28844;SDS011;15976;47.938;7.758;2024-01-16T00:24:22;13.52;;;7.75;;
28844;SDS011;15976;47.938;7.758;2024-01-16T00:26:50;10.40;;;6.35;;
28844;SDS011;15976;47.938;7.758;2024-01-16T00:29:17;14.55;;;7.22;;
28844;SDS011;15976;47.938;7.758;2024-01-16T00:31:44;12.18;;;7.25;;
28844;SDS011;15976;47.938;7.758;2024-01-16T00:34:12;11.68;;;6.75;;
28844;SDS011;15976;47.938;7.758;2024-01-16T00:36:39;9.43;;;6.15;;
28844;SDS011;15976;47.938;7.758;2024-01-16T00:39:06;12.15;;;6.20;;
28844;SDS011;15976;47.938;7.758;2024-01-16T00:41:34;11.48;;;6.75;;
28844;SDS011;15976;47.938;7.758;2024-01-16T00:44:01;9.70;;;6.20;;
28844;SDS011;15976;47.938;7.758;2024-01-16T00:46:29;10.30;;;6.10;;
28844;SDS011;15976;47.938;7.758;2024-01-16T00:48:56;11.20;;;6.20;;
28844;SDS011;15976;47.938;7.758;2024-01-16T00:51:23;10.88;;;5.68;;
28844;SDS011;15976;47.938;7.758;2024-01-16T00:53:50;13.00;;;6.30;;
28844;SDS011;15976;47.938;7.758;2024-01-16T00:56:18;11.73;;;6.28;;
28844;SDS011;15976;47.938;7.758;2024-01-16T00:58:45;11.02;;;6.45;;
28844;SDS011;15976;47.938;7.758;2024-01-16T01:01:13;11.15;;;5.88;;
28844;SDS011;15976;47.938;7.758;2024-01-16T01:03:40;9.93;;;6.10;;
28844;SDS011;15976;47.938;7.758;2024-01-16T01:06:07;9.93;;;5.82;;
28844;SDS011;15976;47.938;7.758;2024-01-16T01:08:35;11.10;;;6.28;;
28844;SDS011;15976;47.938;7.758;2024-01-16T01:11:02;10.95;;;5.75;;
28844;SDS011;15976;47.938;7.758;2024-01-16T01:13:29;9.98;;;5.60;;
28844;SDS011;15976;47.938;7.758;2024-01-16T01:15:56;8.95;;;5.38;;
28844;SDS011;15976;47.938;7.758;2024-01-16T01:18:24;8.25;;;5.65;;
28844;SDS011;15976;47.938;7.758;2024-01-16T01:20:51;11.75;;;5.93;;
28844;SDS011;15976;47.938;7.758;2024-01-16T01:23:18;11.93;;;6.10;;
28844;SDS011;15976;47.938;7.758;2024-01-16T01:25:45;9.13;;;5.68;;
28844;SDS011;15976;47.938;7.758;2024-01-16T01:28:12;10.02;;;5.88;;
28844;SDS011;15976;47.938;7.758;2024-01-16T01:30:39;11.30;;;5.70;;
28844;SDS011;15976;47.938;7.758;2024-01-16T01:33:06;12.40;;;6.15;;
28844;SDS011;15976;47.938;7.758;2024-01-16T01:35:33;9.70;;;5.72;;
28844;SDS011;15976;47.938;7.758;2024-01-16T01:38:01;10.00;;;5.47;;
28844;SDS011;15976;47.938;7.758;2024-01-16T01:40:28;10.88;;;6.00;;
28844;SDS011;15976;47.938;7.758;2024-01-16T01:42:55;11.85;;;5.60;;
28844;SDS011;15976;47.938;7.758;2024-01-16T01:45:22;9.95;;;6.13;;
28844;SDS011;15976;47.938;7.758;2024-01-16T01:47:49;11.60;;;5.70;;
28844;SDS011;15976;47.938;7.758;2024-01-16T01:50:17;11.63;;;6.75;;
28844;SDS011;15976;47.938;7.758;2024-01-16T01:52:45;9.88;;;5.43;;
28844;SDS011;15976;47.938;7.758;2024-01-16T01:55:12;9.27;;;5.70;;
28844;SDS011;15976;47.938;7.758;2024-01-16T01:57:40;9.27;;;5.30;;
28844;SDS011;15976;47.938;7.758;2024-01-16T02:00:10;11.05;;;5.38;;
28844;SDS011;15976;47.938;7.758;2024-01-16T02:02:41;11.30;;;5.55;;
28844;SDS011;15976;47.938;7.758;2024-01-16T02:05:09;10.85;;;5.05;;
28844;SDS011;15976;47.938;7.758;2024-01-16T02:07:37;8.43;;;5.00;;
28844;SDS011;15976;47.938;7.758;2024-01-16T02:10:05;9.40;;;4.72;;
28844;SDS011;15976;47.938;7.758;2024-01-16T02:12:32;11.30;;;5.20;;
28844;SDS011;15976;47.938;7.758;2024-01-16T02:15:00;7.60;;;4.75;;
28844;SDS011;15976;47.938;7.758;2024-01-16T02:17:27;8.10;;;5.15;;
28844;SDS011;15976;47.938;7.758;2024-01-16T02:19:54;8.25;;;5.00;;
28844;SDS011;15976;47.938;7.758;2024-01-16T02:22:21;8.73;;;5.30;;
28844;SDS011;15976;47.938;7.758;2024-01-16T02:24:52;9.23;;;4.50;;
28844;SDS011;15976;47.938;7.758;2024-01-16T02:27:19;8.30;;;4.55;;
28844;SDS011;15976;47.938;7.758;2024-01-16T02:29:46;8.95;;;4.88;;
28844;SDS011;15976;47.938;7.758;2024-01-16T02:32:13;9.23;;;4.63;;
28844;SDS011;15976;47.938;7.758;2024-01-16T02:34:41;7.22;;;4.45;;
28844;SDS011;15976;47.938;7.758;2024-01-16T02:37:10;8.80;;;4.95;;
28844;SDS011;15976;47.938;7.758;2024-01-16T02:39:38;9.90;;;6.43;;
28844;SDS011;15976;47.938;7.758;2024-01-16T02:42:06;9.32;;;5.15;;
28844;SDS011;15976;47.938;7.758;2024-01-16T02:44:33;12.25;;;5.13;;
28844;SDS011;15976;47.938;7.758;2024-01-16T02:47:01;9.60;;;5.43;;
28844;SDS011;15976;47.938;7.758;2024-01-16T02:49:29;10.88;;;5.65;;
28844;SDS011;15976;47.938;7.758;2024-01-16T02:51:58;9.70;;;5.70;;
28844;SDS011;15976;47.938;7.758;2024-01-16T02:54:25;10.40;;;6.25;;
28844;SDS011;15976;47.938;7.758;2024-01-16T02:56:52;11.52;;;5.72;;
28844;SDS011;15976;47.938;7.758;2024-01-16T02:59:19;10.35;;;5.25;;
28844;SDS011;15976;47.938;7.758;2024-01-16T03:01:47;11.57;;;6.53;;
28844;SDS011;15976;47.938;7.758;2024-01-16T03:04:14;12.25;;;7.13;;
28844;SDS011;15976;47.938;7.758;2024-01-16T03:06:41;13.13;;;6.07;;
28844;SDS011;15976;47.938;7.758;2024-01-16T03:09:08;9.57;;;5.50;;
28844;SDS011;15976;47.938;7.758;2024-01-16T03:11:35;8.93;;;5.38;;
28844;SDS011;15976;47.938;7.758;2024-01-16T03:14:02;10.93;;;5.78;;
28844;SDS011;15976;47.938;7.758;2024-01-16T03:16:31;10.10;;;6.00;;
28844;SDS011;15976;47.938;7.758;2024-01-16T03:18:58;10.63;;;5.82;;
28844;SDS011;15976;47.938;7.758;2024-01-16T03:21:26;9.40;;;5.32;;
28844;SDS011;15976;47.938;7.758;2024-01-16T03:23:53;10.93;;;5.47;;
28844;SDS011;15976;47.938;7.758;2024-01-16T03:26:21;8.98;;;5.32;;
28844;SDS011;15976;47.938;7.758;2024-01-16T03:28:48;8.25;;;4.72;;
28844;SDS011;15976;47.938;7.758;2024-01-16T03:31:15;10.05;;;5.30;;
28844;SDS011;15976;47.938;7.758;2024-01-16T03:33:43;11.73;;;6.00;;
28844;SDS011;15976;47.938;7.758;2024-01-16T03:36:11;9.52;;;6.03;;
28844;SDS011;15976;47.938;7.758;2024-01-16T03:38:39;10.43;;;5.95;;
28844;SDS011;15976;47.938;7.758;2024-01-16T03:41:07;10.63;;;5.40;;
28844;SDS011;15976;47.938;7.758;2024-01-16T03:43:34;9.98;;;5.47;;
28844;SDS011;15976;47.938;7.758;2024-01-16T03:46:02;8.73;;;5.00;;
28844;SDS011;15976;47.938;7.758;2024-01-16T03:48:29;12.57;;;6.22;;
28844;SDS011;15976;47.938;7.758;2024-01-16T03:50:56;10.02;;;6.35;;
28844;SDS011;15976;47.938;7.758;2024-01-16T03:53:23;10.75;;;6.35;;
28844;SDS011;15976;47.938;7.758;2024-01-16T03:55:51;10.48;;;5.70;;
28844;SDS011;15976;47.938;7.758;2024-01-16T03:58:18;9.40;;;5.55;;
28844;SDS011;15976;47.938;7.758;2024-01-16T04:00:45;9.18;;;5.43;;
28844;SDS011;15976;47.938;7.758;2024-01-16T04:03:13;10.45;;;6.50;;
28844;SDS011;15976;47.938;7.758;2024-01-16T04:05:40;9.27;;;5.82;;
28844;SDS011;15976;47.938;7.758;2024-01-16T04:08:07;12.63;;;6.50;;
28844;SDS011;15976;47.938;7.758;2024-01-16T04:10:34;9.68;;;5.85;;
28844;SDS011;15976;47.938;7.758;2024-01-16T04:13:02;10.63;;;5.97;;
28844;SDS011;15976;47.938;7.758;2024-01-16T04:15:29;11.05;;;6.20;;
28844;SDS011;15976;47.938;7.758;2024-01-16T04:17:56;10.52;;;6.07;;
28844;SDS011;15976;47.938;7.758;2024-01-16T04:20:23;12.77;;;7.32;;
28844;SDS011;15976;47.938;7.758;2024-01-16T04:22:51;11.75;;;6.68;;
28844;SDS011;15976;47.938;7.758;2024-01-16T04:25:18;11.10;;;6.85;;
28844;SDS011;15976;47.938;7.758;2024-01-16T04:27:45;16.52;;;8.60;;
28844;SDS011;15976;47.938;7.758;2024-01-16T04:30:12;12.73;;;7.47;;
28844;SDS011;15976;47.938;7.758;2024-01-16T04:32:40;14.73;;;7.45;;
28844;SDS011;15976;47.938;7.758;2024-01-16T04:35:09;14.95;;;8.00;;
28844;SDS011;15976;47.938;7.758;2024-01-16T04:37:36;13.55;;;7.53;;
28844;SDS011;15976;47.938;7.758;2024-01-16T04:40:04;11.90;;;6.75;;
28844;SDS011;15976;47.938;7.758;2024-01-16T04:42:32;11.18;;;6.75;;
28844;SDS011;15976;47.938;7.758;2024-01-16T04:45:00;14.43;;;6.90;;
28844;SDS011;15976;47.938;7.758;2024-01-16T04:47:27;11.38;;;6.57;;
28844;SDS011;15976;47.938;7.758;2024-01-16T04:49:54;12.60;;;7.45;;
28844;SDS011;15976;47.938;7.758;2024-01-16T04:52:22;14.25;;;8.18;;
28844;SDS011;15976;47.938;7.758;2024-01-16T04:54:49;15.98;;;8.35;;
28844;SDS011;15976;47.938;7.758;2024-01-16T04:57:16;14.68;;;8.38;;
28844;SDS011;15976;47.938;7.758;2024-01-16T04:59:43;12.93;;;7.88;;
28844;SDS011;15976;47.938;7.758;2024-01-16T05:02:10;15.50;;;8.02;;
28844;SDS011;15976;47.938;7.758;2024-01-16T05:04:38;16.80;;;8.02;;
28844;SDS011;15976;47.938;7.758;2024-01-16T05:07:05;15.93;;;8.57;;
28844;SDS011;15976;47.938;7.758;2024-01-16T05:09:32;12.88;;;8.48;;
28844;SDS011;15976;47.938;7.758;2024-01-16T05:11:59;11.40;;;7.90;;
28844;SDS011;15976;47.938;7.758;2024-01-16T05:14:27;14.40;;;8.18;;
28844;SDS011;15976;47.938;7.758;2024-01-16T05:16:54;14.93;;;8.40;;
28844;SDS011;15976;47.938;7.758;2024-01-16T05:19:21;17.20;;;8.50;;
28844;SDS011;15976;47.938;7.758;2024-01-16T05:21:48;15.23;;;9.43;;
28844;SDS011;15976;47.938;7.758;2024-01-16T05:24:15;12.98;;;8.15;;
28844;SDS011;15976;47.938;7.758;2024-01-16T05:26:42;16.02;;;9.30;;
28844;SDS011;15976;47.938;7.758;2024-01-16T05:29:09;16.02;;;9.25;;
28844;SDS011;15976;47.938;7.758;2024-01-16T05:31:41;18.23;;;9.90;;
28844;SDS011;15976;47.938;7.758;2024-01-16T05:34:09;20.70;;;10.07;;
28844;SDS011;15976;47.938;7.758;2024-01-16T05:36:36;16.95;;;10.02;;
28844;SDS011;15976;47.938;7.758;2024-01-16T05:39:04;16.48;;;10.23;;
28844;SDS011;15976;47.938;7.758;2024-01-16T05:41:34;18.85;;;9.57;;
28844;SDS011;15976;47.938;7.758;2024-01-16T05:44:02;24.38;;;12.95;;
28844;SDS011;15976;47.938;7.758;2024-01-16T05:46:32;23.63;;;13.32;;
28844;SDS011;15976;47.938;7.758;2024-01-16T05:49:00;27.33;;;13.23;;
28844;SDS011;15976;47.938;7.758;2024-01-16T05:51:27;20.88;;;11.70;;
28844;SDS011;15976;47.938;7.758;2024-01-16T05:53:56;20.50;;;12.63;;
28844;SDS011;15976;47.938;7.758;2024-01-16T05:56:23;27.00;;;13.73;;
28844;SDS011;15976;47.938;7.758;2024-01-16T05:58:50;24.95;;;13.88;;
28844;SDS011;15976;47.938;7.758;2024-01-16T06:01:18;21.55;;;12.70;;
28844;SDS011;15976;47.938;7.758;2024-01-16T06:03:45;23.80;;;13.60;;
28844;SDS011;15976;47.938;7.758;2024-01-16T06:06:16;28.85;;;15.50;;
28844;SDS011;15976;47.938;7.758;2024-01-16T06:08:43;22.15;;;11.52;;
28844;SDS011;15976;47.938;7.758;2024-01-16T06:11:10;20.30;;;10.07;;
28844;SDS011;15976;47.938;7.758;2024-01-16T06:13:43;17.00;;;11.10;;
28844;SDS011;15976;47.938;7.758;2024-01-16T06:16:10;35.67;;;17.08;;
28844;SDS011;15976;47.938;7.758;2024-01-16T06:18:37;37.00;;;18.25;;
28844;SDS011;15976;47.938;7.758;2024-01-16T06:21:04;31.25;;;17.00;;
28844;SDS011;15976;47.938;7.758;2024-01-16T06:23:31;31.63;;;17.67;;
28844;SDS011;15976;47.938;7.758;2024-01-16T06:25:59;30.45;;;16.73;;
28844;SDS011;15976;47.938;7.758;2024-01-16T06:28:27;28.85;;;16.02;;
28844;SDS011;15976;47.938;7.758;2024-01-16T06:30:54;26.98;;;16.27;;
28844;SDS011;15976;47.938;7.758;2024-01-16T06:33:22;39.78;;;21.42;;
28844;SDS011;15976;47.938;7.758;2024-01-16T06:35:49;43.83;;;23.60;;
28844;SDS011;15976;47.938;7.758;2024-01-16T06:38:19;40.45;;;23.50;;
28844;SDS011;15976;47.938;7.758;2024-01-16T06:40:46;39.90;;;23.00;;
28844;SDS011;15976;47.938;7.758;2024-01-16T06:43:14;36.25;;;20.65;;
28844;SDS011;15976;47.938;7.758;2024-01-16T06:45:42;32.72;;;18.52;;
28844;SDS011;15976;47.938;7.758;2024-01-16T06:48:10;28.13;;;14.77;;
28844;SDS011;15976;47.938;7.758;2024-01-16T06:50:37;16.35;;;10.00;;
28844;SDS011;15976;47.938;7.758;2024-01-16T06:53:04;24.08;;;13.60;;
28844;SDS011;15976;47.938;7.758;2024-01-16T06:55:34;20.15;;;12.30;;
28844;SDS011;15976;47.938;7.758;2024-01-16T06:58:01;24.00;;;13.20;;
28844;SDS011;15976;47.938;7.758;2024-01-16T07:00:29;22.45;;;11.98;;
28844;SDS011;15976;47.938;7.758;2024-01-16T07:02:56;41.78;;;24.83;;
28844;SDS011;15976;47.938;7.758;2024-01-16T07:05:23;46.50;;;25.25;;
28844;SDS011;15976;47.938;7.758;2024-01-16T07:07:50;48.15;;;26.15;;
28844;SDS011;15976;47.938;7.758;2024-01-16T07:10:17;48.05;;;24.85;;
28844;SDS011;15976;47.938;7.758;2024-01-16T07:12:45;41.17;;;26.23;;
28844;SDS011;15976;47.938;7.758;2024-01-16T07:15:12;27.65;;;18.00;;
28844;SDS011;15976;47.938;7.758;2024-01-16T07:17:39;26.40;;;16.63;;
28844;SDS011;15976;47.938;7.758;2024-01-16T07:20:08;28.30;;;17.58;;
28844;SDS011;15976;47.938;7.758;2024-01-16T07:22:39;30.40;;;16.65;;
28844;SDS011;15976;47.938;7.758;2024-01-16T07:25:06;25.20;;;14.85;;
28844;SDS011;15976;47.938;7.758;2024-01-16T07:27:34;23.85;;;14.18;;
28844;SDS011;15976;47.938;7.758;2024-01-16T07:30:01;20.98;;;12.05;;
28844;SDS011;15976;47.938;7.758;2024-01-16T07:32:31;29.42;;;17.67;;
28844;SDS011;15976;47.938;7.758;2024-01-16T07:34:59;35.15;;;20.75;;
28844;SDS011;15976;47.938;7.758;2024-01-16T07:37:26;43.30;;;22.50;;
28844;SDS011;15976;47.938;7.758;2024-01-16T07:39:54;38.72;;;21.25;;
28844;SDS011;15976;47.938;7.758;2024-01-16T07:42:21;43.90;;;24.30;;
28844;SDS011;15976;47.938;7.758;2024-01-16T07:44:48;38.85;;;23.13;;
28844;SDS011;15976;47.938;7.758;2024-01-16T07:47:15;33.15;;;18.15;;
28844;SDS011;15976;47.938;7.758;2024-01-16T07:49:42;17.33;;;10.27;;
28844;SDS011;15976;47.938;7.758;2024-01-16T07:52:10;18.13;;;9.57;;
28844;SDS011;15976;47.938;7.758;2024-01-16T07:54:38;13.00;;;8.18;;
28844;SDS011;15976;47.938;7.758;2024-01-16T07:57:05;15.35;;;9.38;;
28844;SDS011;15976;47.938;7.758;2024-01-16T07:59:33;14.88;;;8.90;;
28844;SDS011;15976;47.938;7.758;2024-01-16T08:02:00;14.43;;;8.45;;
28844;SDS011;15976;47.938;7.758;2024-01-16T08:04:27;17.23;;;9.38;;
28844;SDS011;15976;47.938;7.758;2024-01-16T08:06:54;13.43;;;8.10;;
28844;SDS011;15976;47.938;7.758;2024-01-16T08:09:21;15.13;;;9.48;;
28844;SDS011;15976;47.938;7.758;2024-01-16T08:11:48;16.77;;;8.30;;
28844;SDS011;15976;47.938;7.758;2024-01-16T08:14:16;15.75;;;9.27;;
28844;SDS011;15976;47.938;7.758;2024-01-16T08:16:43;20.85;;;10.65;;
28844;SDS011;15976;47.938;7.758;2024-01-16T08:19:09;19.33;;;9.60;;
28844;SDS011;15976;47.938;7.758;2024-01-16T08:21:37;14.43;;;9.27;;
28844;SDS011;15976;47.938;7.758;2024-01-16T08:24:04;18.73;;;9.65;;
28844;SDS011;15976;47.938;7.758;2024-01-16T08:26:31;16.75;;;10.70;;
28844;SDS011;15976;47.938;7.758;2024-01-16T08:28:58;17.73;;;10.77;;
28844;SDS011;15976;47.938;7.758;2024-01-16T08:31:25;18.23;;;10.05;;
28844;SDS011;15976;47.938;7.758;2024-01-16T08:33:52;15.35;;;8.93;;
28844;SDS011;15976;47.938;7.758;2024-01-16T08:36:22;15.82;;;10.15;;
28844;SDS011;15976;47.938;7.758;2024-01-16T08:38:49;17.75;;;10.77;;
28844;SDS011;15976;47.938;7.758;2024-01-16T08:41:17;13.02;;;8.65;;
28844;SDS011;15976;47.938;7.758;2024-01-16T08:43:44;15.50;;;8.70;;
28844;SDS011;15976;47.938;7.758;2024-01-16T08:46:11;17.10;;;9.73;;
28844;SDS011;15976;47.938;7.758;2024-01-16T08:48:41;21.83;;;14.85;;
28844;SDS011;15976;47.938;7.758;2024-01-16T08:51:10;35.03;;;22.98;;
28844;SDS011;15976;47.938;7.758;2024-01-16T08:53:41;25.55;;;16.70;;
28844;SDS011;15976;47.938;7.758;2024-01-16T08:56:09;24.83;;;14.80;;
28844;SDS011;15976;47.938;7.758;2024-01-16T08:58:36;21.17;;;14.75;;
28844;SDS011;15976;47.938;7.758;2024-01-16T09:01:05;18.02;;;11.23;;
28844;SDS011;15976;47.938;7.758;2024-01-16T09:03:33;19.23;;;11.45;;
28844;SDS011;15976;47.938;7.758;2024-01-16T09:06:00;20.85;;;12.85;;
28844;SDS011;15976;47.938;7.758;2024-01-16T09:08:28;18.55;;;11.02;;
28844;SDS011;15976;47.938;7.758;2024-01-16T09:10:55;15.90;;;9.07;;
28844;SDS011;15976;47.938;7.758;2024-01-16T09:13:23;16.23;;;10.75;;
28844;SDS011;15976;47.938;7.758;2024-01-16T09:15:50;16.30;;;8.98;;
28844;SDS011;15976;47.938;7.758;2024-01-16T09:18:17;15.15;;;8.50;;
28844;SDS011;15976;47.938;7.758;2024-01-16T09:20:44;16.58;;;10.40;;
28844;SDS011;15976;47.938;7.758;2024-01-16T09:23:12;23.25;;;14.07;;
28844;SDS011;15976;47.938;7.758;2024-01-16T09:25:39;25.38;;;13.93;;
28844;SDS011;15976;47.938;7.758;2024-01-16T09:28:06;27.70;;;17.42;;
28844;SDS011;15976;47.938;7.758;2024-01-16T09:30:33;31.85;;;16.38;;
28844;SDS011;15976;47.938;7.758;2024-01-16T09:33:00;25.13;;;14.65;;
28844;SDS011;15976;47.938;7.758;2024-01-16T09:35:29;19.65;;;12.45;;
28844;SDS011;15976;47.938;7.758;2024-01-16T09:37:56;21.50;;;12.13;;
28844;SDS011;15976;47.938;7.758;2024-01-16T09:40:23;22.23;;;13.18;;
28844;SDS011;15976;47.938;7.758;2024-01-16T09:42:50;23.38;;;12.48;;
28844;SDS011;15976;47.938;7.758;2024-01-16T09:45:21;24.77;;;13.77;;
28844;SDS011;15976;47.938;7.758;2024-01-16T09:47:49;24.05;;;15.68;;
28844;SDS011;15976;47.938;7.758;2024-01-16T09:50:18;24.58;;;15.43;;
28844;SDS011;15976;47.938;7.758;2024-01-16T09:52:46;23.80;;;14.77;;
28844;SDS011;15976;47.938;7.758;2024-01-16T09:55:17;24.30;;;14.38;;
28844;SDS011;15976;47.938;7.758;2024-01-16T09:57:45;27.27;;;15.70;;
28844;SDS011;15976;47.938;7.758;2024-01-16T10:00:13;41.42;;;22.40;;
28844;SDS011;15976;47.938;7.758;2024-01-16T10:02:42;32.03;;;17.42;;
28844;SDS011;15976;47.938;7.758;2024-01-16T10:05:10;28.90;;;17.88;;
28844;SDS011;15976;47.938;7.758;2024-01-16T10:07:39;34.33;;;18.23;;
28844;SDS011;15976;47.938;7.758;2024-01-16T10:10:07;30.88;;;18.17;;
28844;SDS011;15976;47.938;7.758;2024-01-16T10:12:38;35.60;;;19.35;;
28844;SDS011;15976;47.938;7.758;2024-01-16T10:15:07;38.92;;;21.98;;
28844;SDS011;15976;47.938;7.758;2024-01-16T10:17:35;40.33;;;20.95;;
28844;SDS011;15976;47.938;7.758;2024-01-16T10:20:07;37.88;;;20.88;;
28844;SDS011;15976;47.938;7.758;2024-01-16T10:22:52;39.50;;;21.40;;
28844;SDS011;15976;47.938;7.758;2024-01-16T10:25:20;34.50;;;19.63;;
28844;SDS011;15976;47.938;7.758;2024-01-16T10:27:49;37.33;;;20.50;;
28844;SDS011;15976;47.938;7.758;2024-01-16T10:30:28;35.42;;;19.90;;
28844;SDS011;15976;47.938;7.758;2024-01-16T10:33:01;35.30;;;20.85;;
28844;SDS011;15976;47.938;7.758;2024-01-16T10:35:45;45.20;;;27.17;;
28844;SDS011;15976;47.938;7.758;2024-01-16T10:38:19;38.20;;;20.90;;
28844;SDS011;15976;47.938;7.758;2024-01-16T10:41:03;30.35;;;19.67;;
28844;SDS011;15976;47.938;7.758;2024-01-16T10:43:32;34.58;;;19.33;;
28844;SDS011;15976;47.938;7.758;2024-01-16T10:48:41;34.90;;;17.95;;
28844;SDS011;15976;47.938;7.758;2024-01-16T10:51:24;29.65;;;17.33;;
28844;SDS011;15976;47.938;7.758;2024-01-16T10:54:03;31.20;;;17.20;;
28844;SDS011;15976;47.938;7.758;2024-01-16T10:56:36;31.03;;;16.80;;
28844;SDS011;15976;47.938;7.758;2024-01-16T10:59:10;26.38;;;16.25;;
28844;SDS011;15976;47.938;7.758;2024-01-16T11:01:39;33.35;;;17.85;;
28844;SDS011;15976;47.938;7.758;2024-01-16T11:04:10;30.83;;;16.83;;
28844;SDS011;15976;47.938;7.758;2024-01-16T11:06:41;31.90;;;16.83;;
28844;SDS011;15976;47.938;7.758;2024-01-16T11:09:12;30.45;;;16.45;;
28844;SDS011;15976;47.938;7.758;2024-01-16T11:11:45;31.73;;;18.17;;
28844;SDS011;15976;47.938;7.758;2024-01-16T11:14:13;30.95;;;18.88;;
28844;SDS011;15976;47.938;7.758;2024-01-16T11:16:41;34.28;;;18.00;;
28844;SDS011;15976;47.938;7.758;2024-01-16T11:19:10;32.47;;;18.63;;
28844;SDS011;15976;47.938;7.758;2024-01-16T11:21:58;30.92;;;17.60;;
28844;SDS011;15976;47.938;7.758;2024-01-16T11:24:26;31.42;;;17.98;;
28844;SDS011;15976;47.938;7.758;2024-01-16T11:26:53;31.85;;;17.88;;
28844;SDS011;15976;47.938;7.758;2024-01-16T11:31:55;34.78;;;17.23;;
28844;SDS011;15976;47.938;7.758;2024-01-16T11:37:13;30.40;;;17.02;;
28844;SDS011;15976;47.938;7.758;2024-01-16T11:39:42;34.35;;;18.10;;
28844;SDS011;15976;47.938;7.758;2024-01-16T11:42:09;30.77;;;17.13;;
28844;SDS011;15976;47.938;7.758;2024-01-16T11:44:49;36.75;;;19.55;;
28844;SDS011;15976;47.938;7.758;2024-01-16T11:47:18;28.52;;;16.27;;
28844;SDS011;15976;47.938;7.758;2024-01-16T11:49:50;27.02;;;15.93;;
28844;SDS011;15976;47.938;7.758;2024-01-16T11:52:40;29.27;;;15.20;;
28844;SDS011;15976;47.938;7.758;2024-01-16T11:55:24;29.05;;;15.50;;
28844;SDS011;15976;47.938;7.758;2024-01-16T12:00:54;26.17;;;15.73;;
28844;SDS011;15976;47.938;7.758;2024-01-16T12:03:24;25.33;;;15.48;;
28844;SDS011;15976;47.938;7.758;2024-01-16T12:06:01;26.00;;;14.40;;
28844;SDS011;15976;47.938;7.758;2024-01-16T12:08:30;31.52;;;15.63;;
28844;SDS011;15976;47.938;7.758;2024-01-16T12:10:58;26.00;;;14.52;;
28844;SDS011;15976;47.938;7.758;2024-01-16T12:13:26;35.08;;;16.13;;
28844;SDS011;15976;47.938;7.758;2024-01-16T12:16:00;27.25;;;14.55;;
28844;SDS011;15976;47.938;7.758;2024-01-16T12:18:27;41.28;;;17.25;;
28844;SDS011;15976;47.938;7.758;2024-01-16T12:21:09;43.80;;;17.88;;
28844;SDS011;15976;47.938;7.758;2024-01-16T12:23:38;39.33;;;16.05;;
28844;SDS011;15976;47.938;7.758;2024-01-16T12:26:21;34.35;;;15.45;;
28844;SDS011;15976;47.938;7.758;2024-01-16T12:28:53;25.08;;;15.00;;
28844;SDS011;15976;47.938;7.758;2024-01-16T12:31:28;29.50;;;14.38;;
28844;SDS011;15976;47.938;7.758;2024-01-16T12:34:05;23.73;;;14.25;;
28844;SDS011;15976;47.938;7.758;2024-01-16T12:36:37;20.58;;;11.88;;
28844;SDS011;15976;47.938;7.758;2024-01-16T12:39:04;24.17;;;12.52;;
28844;SDS011;15976;47.938;7.758;2024-01-16T12:41:41;26.90;;;12.38;;
28844;SDS011;15976;47.938;7.758;2024-01-16T12:44:18;34.05;;;12.25;;
28844;SDS011;15976;47.938;7.758;2024-01-16T12:46:55;24.95;;;13.70;;
28844;SDS011;15976;47.938;7.758;2024-01-16T12:49:23;26.40;;;13.05;;
28844;SDS011;15976;47.938;7.758;2024-01-16T12:51:51;27.02;;;13.60;;
28844;SDS011;15976;47.938;7.758;2024-01-16T12:54:39;24.27;;;13.57;;
28844;SDS011;15976;47.938;7.758;2024-01-16T12:57:06;26.40;;;13.30;;
28844;SDS011;15976;47.938;7.758;2024-01-16T12:59:39;31.83;;;13.02;;
28844;SDS011;15976;47.938;7.758;2024-01-16T13:02:07;27.15;;;12.93;;
28844;SDS011;15976;47.938;7.758;2024-01-16T13:04:34;23.73;;;13.73;;
28844;SDS011;15976;47.938;7.758;2024-01-16T13:07:02;24.85;;;13.63;;
28844;SDS011;15976;47.938;7.758;2024-01-16T13:09:30;27.17;;;14.13;;
28844;SDS011;15976;47.938;7.758;2024-01-16T13:11:58;22.73;;;12.43;;
28844;SDS011;15976;47.938;7.758;2024-01-16T13:14:27;23.77;;;13.50;;
28844;SDS011;15976;47.938;7.758;2024-01-16T13:16:55;24.33;;;12.93;;
28844;SDS011;15976;47.938;7.758;2024-01-16T13:19:23;22.08;;;12.27;;
28844;SDS011;15976;47.938;7.758;2024-01-16T13:21:51;41.30;;;13.40;;
28844;SDS011;15976;47.938;7.758;2024-01-16T13:24:18;44.83;;;13.82;;
28844;SDS011;15976;47.938;7.758;2024-01-16T13:26:49;19.73;;;11.85;;
28844;SDS011;15976;47.938;7.758;2024-01-16T13:29:16;22.80;;;11.63;;
28844;SDS011;15976;47.938;7.758;2024-01-16T13:31:43;21.35;;;12.82;;
28844;SDS011;15976;47.938;7.758;2024-01-16T13:34:11;22.92;;;12.50;;
28844;SDS011;15976;47.938;7.758;2024-01-16T13:36:39;29.55;;;13.05;;
28844;SDS011;15976;47.938;7.758;2024-01-16T13:39:29;23.65;;;12.07;;
28844;SDS011;15976;47.938;7.758;2024-01-16T13:41:58;23.27;;;11.73;;
28844;SDS011;15976;47.938;7.758;2024-01-16T13:44:25;19.50;;;11.20;;
28844;SDS011;15976;47.938;7.758;2024-01-16T13:46:54;19.33;;;11.50;;
28844;SDS011;15976;47.938;7.758;2024-01-16T13:49:34;24.73;;;11.57;;
28844;SDS011;15976;47.938;7.758;2024-01-16T13:52:01;19.95;;;11.00;;
28844;SDS011;15976;47.938;7.758;2024-01-16T13:54:30;16.00;;;10.77;;
28844;SDS011;15976;47.938;7.758;2024-01-16T13:56:57;18.33;;;10.98;;
28844;SDS011;15976;47.938;7.758;2024-01-16T13:59:39;18.77;;;10.30;;
28844;SDS011;15976;47.938;7.758;2024-01-16T14:02:07;20.10;;;10.40;;
28844;SDS011;15976;47.938;7.758;2024-01-16T14:04:36;20.30;;;11.63;;
28844;SDS011;15976;47.938;7.758;2024-01-16T14:07:04;24.33;;;12.02;;
28844;SDS011;15976;47.938;7.758;2024-01-16T14:09:35;23.60;;;11.18;;
28844;SDS011;15976;47.938;7.758;2024-01-16T14:12:03;19.67;;;10.82;;
28844;SDS011;15976;47.938;7.758;2024-01-16T14:14:35;18.25;;;10.30;;
28844;SDS011;15976;47.938;7.758;2024-01-16T14:17:05;14.55;;;9.18;;
28844;SDS011;15976;47.938;7.758;2024-01-16T14:19:35;20.20;;;10.75;;
28844;SDS011;15976;47.938;7.758;2024-01-16T14:22:05;17.85;;;9.73;;
28844;SDS011;15976;47.938;7.758;2024-01-16T14:24:33;16.65;;;9.90;;
28844;SDS011;15976;47.938;7.758;2024-01-16T14:27:00;19.05;;;9.88;;
28844;SDS011;15976;47.938;7.758;2024-01-16T14:29:28;17.45;;;10.20;;
28844;SDS011;15976;47.938;7.758;2024-01-16T14:31:55;18.23;;;10.05;;
28844;SDS011;15976;47.938;7.758;2024-01-16T14:34:25;16.15;;;10.02;;
28844;SDS011;15976;47.938;7.758;2024-01-16T14:36:53;19.52;;;11.15;;
28844;SDS011;15976;47.938;7.758;2024-01-16T14:39:20;20.67;;;11.15;;
28844;SDS011;15976;47.938;7.758;2024-01-16T14:41:52;34.55;;;12.50;;
28844;SDS011;15976;47.938;7.758;2024-01-16T14:44:20;23.67;;;12.35;;
28844;SDS011;15976;47.938;7.758;2024-01-16T14:46:47;19.20;;;10.75;;
28844;SDS011;15976;47.938;7.758;2024-01-16T14:49:18;20.35;;;10.35;;